• Join FlightAware (Why Join?)
  • Login
  • US Flag 
03:44AM EDT


 

Airport Tracker/Info


-or-


 

Live Flight TrackerFlight Track Log ✈ SKW2959 ✈ 01-May-2013 ✈ KPHX - KSBA

Flight Track Log - Related Links

Times and Time Zones

All times are in EDT time to prevent confusion due to time zone crossing. See the SKW2959 flight status page for this flight to view local times or setup timezone preferences in your user account.

Time Position Orientation Groundspeed Altitude Reporting Facility
EDT Latitude Longitude Course Direction KTS MPH feet Rate Location/Type
10:46AM 33.4333 -111.9833 73° East 163 188 2,100  Level Phoenix TRACON
10:48AM 33.4500 -111.9167 73° East 221 254 3,800 1,320 Climbing Phoenix TRACON
10:48AM 33.4422 -111.9086 139° Southeast 215 247 4,000 2,460 Climbing Albuquerque Center
10:49AM 33.4203 -111.8114 105° East 273 314 7,100 2,820 Climbing Albuquerque Center
10:50AM 33.3678 -111.7392 131° Southeast 287 330 9,900 2,460 Climbing Albuquerque Center
10:51AM 33.2933 -111.7194 168° South 290 334 12,300 2,160 Climbing Albuquerque Center
10:52AM 33.2569 -111.8006 242° Southwest 296 341 14,400 1,680 Climbing Albuquerque Center
10:53AM 33.2731 -111.9025 281° West 316 364 15,800 1,500 Climbing Albuquerque Center
10:54AM 33.2947 -112.0100 284° West 331 381 17,500 1,860 Climbing Albuquerque Center
10:55AM 33.3156 -112.1183 283° West 333 383 19,700 1,980 Climbing Albuquerque Center
10:56AM 33.3403 -112.2472 283° West 332 382 21,600 1,680 Climbing Albuquerque Center
10:57AM 33.3622 -112.3589 283° West 340 391 23,200 1,260 Climbing Albuquerque Center
10:58AM 33.3844 -112.4708 283° West 345 397 24,300 960 Climbing Albuquerque Center
10:59AM 33.4075 -112.5881 283° West 359 413 25,300 960 Climbing Albuquerque Center
11:00AM 33.4347 -112.7300 283° West 371 427 26,400 960 Climbing Albuquerque Center
11:01AM 33.4586 -112.8517 283° West 376 433 27,400 960 Climbing Albuquerque Center
11:02AM 33.4833 -112.9767 283° West 383 441 28,400 960 Climbing Albuquerque Center
11:03AM 33.5067 -113.1006 283° West 384 442 29,400 960 Climbing Albuquerque Center
11:04AM 33.5303 -113.2233 283° West 382 440 30,400 960 Climbing Albuquerque Center
11:05AM 33.5531 -113.3461 283° West 380 437 31,400 720 Climbing Albuquerque Center
11:06AM 33.5819 -113.4925 283° West 378 435 32,000 240 Climbing Albuquerque Center
11:07AM 33.6047 -113.6228 282° West 393 452 32,000  Level Albuquerque Center
11:08AM 33.6300 -113.7650 282° West 405 466 32,000  Level Albuquerque Center
11:10AM 33.6500 -113.8978 280° West 405 466 32,000  Level Albuquerque Center
11:11AM 33.6706 -114.0297 281° West 404 465 32,000  Level Albuquerque Center
11:12AM 33.6922 -114.1581 282° West 396 456 32,000  Level Albuquerque Center
11:13AM 33.7156 -114.3058 281° West 400 460 32,000  Level Albuquerque Center
11:14AM 33.7433 -114.4658 282° West 396 456 32,000  Level Los Angeles Center
11:15AM 33.7683 -114.6219 281° West 399 459 32,000  Level Los Angeles Center
11:16AM 33.7878 -114.7525 280° West 398 458 32,000  Level Los Angeles Center
11:17AM 33.8072 -114.8803 280° West 392 451 32,000  Level Los Angeles Center
11:18AM 33.8281 -115.0117 281° West 398 458 32,000  Level Los Angeles Center
11:19AM 33.8475 -115.1419 280° West 398 458 32,000  Level Los Angeles Center
11:20AM 33.8667 -115.2722 280° West 398 458 32,000  Level Los Angeles Center
11:21AM 33.8853 -115.4297 278° West 398 458 32,000  Level Los Angeles Center
11:22AM 33.8903 -115.5628 273° West 401 461 32,000  Level Los Angeles Center
11:23AM 33.8956 -115.6969 273° West 403 464 32,000  Level Los Angeles Center
11:24AM 33.9006 -115.8306 273° West 403 464 32,000  Level Los Angeles Center
11:25AM 33.9047 -115.9622 272° West 398 458 32,000  Level Los Angeles Center
11:26AM 33.9100 -116.1222 272° West 400 460 32,000  Level Los Angeles Center
11:27AM 33.9161 -116.2561 273° West 402 463 32,000  Level Los Angeles Center
11:28AM 33.9147 -116.3889 269° West 401 461 32,000  Level Los Angeles Center
11:29AM 33.9097 -116.5228 267° West 403 464 32,000  Level Los Angeles Center
11:31AM 33.9061 -116.6575 268° West 403 464 32,000  Level Los Angeles Center
11:32AM 33.9378 -116.8131 284° West 401 461 32,000  Level Los Angeles Center
11:33AM 33.9656 -116.9414 285° West 401 461 32,000  Level Los Angeles Center
11:34AM 33.9925 -117.0714 284° West 401 461 32,000  Level Los Angeles Center
11:35AM 34.0192 -117.1997 284° West 402 463 32,000  Level Los Angeles Center
11:36AM 34.0458 -117.3308 284° West 404 465 32,000  Level Los Angeles Center
11:37AM 34.0786 -117.4864 284° West 401 461 32,000  Level Los Angeles Center
11:38AM 34.1053 -117.6175 284° West 404 465 32,000  Level Los Angeles Center
11:39AM 34.1319 -117.7483 284° West 404 465 32,000  Level Los Angeles Center
11:40AM 34.1586 -117.8792 284° West 405 466 32,000  Level Los Angeles Center
11:41AM 34.1853 -118.0111 284° West 407 468 32,000  Level Los Angeles Center
11:42AM 34.2167 -118.1703 283° West 409 471 32,000 -180 Level Los Angeles Center
11:43AM 34.2436 -118.3017 284° West 408 470 31,700 -1,620 Descending Los Angeles Center
11:44AM 34.2692 -118.4361 283° West 415 478 28,700 -2,940 Descending Los Angeles Center
11:45AM 34.2950 -118.5681 283° West 409 471 25,700 -2,280 Descending Los Angeles Center
11:46AM 34.3200 -118.6947 283° West 392 451 24,000 -840 Descending Los Angeles Center
11:47AM 34.3467 -118.8344 283° West 362 417 24,000 -480 Level Los Angeles Center
11:48AM 34.3525 -118.9492 274° West 346 398 23,100 -1,260 Descending Los Angeles Center
11:49AM 34.3431 -119.0611 264° West 338 389 21,400 -2,220 Descending Los Angeles Center
11:50AM 34.3347 -119.1767 265° West 331 381 18,800 -2,640 Descending Los Angeles Center
11:51AM 34.3297 -119.2203 262° West 332 382 17,800 -2,040 Descending Los Angeles Center
11:51AM 34.3100 -119.2761 247° West 334 384 16,500 -2,460 Descending Los Angeles Center
11:52AM 34.2817 -119.3431 243° Southwest 323 372 14,900 -3,000 Descending Los Angeles Center
11:52AM 34.2636 -119.3889 245° Southwest 313 360 13,400 -2,760 Descending Los Angeles Center
11:53AM 34.2472 -119.4297 244° Southwest 302 348 12,100 -2,940 Descending Los Angeles Center
11:53AM 34.2244 -119.4772 240° Southwest 303 349 10,400 -2,520 Descending Los Angeles Center
11:54AM 34.2097 -119.5125 243° Southwest 293 337 9,800 -1,500 Descending Los Angeles Center
11:54AM 34.1906 -119.5600 244° Southwest 287 330 8,900 -900 Descending Los Angeles Center
11:55AM 34.1908 -119.5914 271° West 257 296 8,900 -780 Level Los Angeles Center
11:55AM 34.2167 -119.6197 318° Northwest 239 275 8,100 -1,320 Descending Los Angeles Center
11:56AM 34.2439 -119.6261 349° North 222 255 7,600 -1,680 Descending Los Angeles Center
11:56AM 34.2767 -119.6392 342° North 224 258 6,400 -2,340 Descending Los Angeles Center
11:57AM 34.3422 -119.6581 347° North 209 241 3,500 -2,760 Descending Los Angeles Center
11:58AM 34.3511 -119.6694 313° West 198 228 2,900 -1,380 Descending Los Angeles Center
11:58AM 34.3836 -119.6922 330° Northwest 195 224 2,100 -720 Descending Los Angeles Center
12:00PM 34.3997 -119.7389 293° West 168 193 1,600 -600 Descending Los Angeles Center
12:01PM 34.4128 -119.7872 288° West 156 180 900 -660 Descending Los Angeles Center
12:02PM 34.4336 -119.8300 301° West 149 171 300 -600 Descending Los Angeles Center
12:04PM 34.4167 -119.8333 292° West  Level FlightAware Approximate